createdAt,value
2017-09-08T00:17:31.403Z,4.80
2017-09-08T00:20:02.690Z,4.30
2017-09-08T00:22:32.047Z,5.55
2017-09-08T00:25:01.307Z,4.25
2017-09-08T00:27:31.547Z,4.20
2017-09-08T00:30:00.876Z,4.50
2017-09-08T00:32:31.140Z,4.62
2017-09-08T00:35:01.822Z,4.62
2017-09-08T00:37:30.322Z,5.12
2017-09-08T00:39:59.961Z,5.43
2017-09-08T00:42:30.378Z,4.95
2017-09-08T00:44:59.883Z,4.65
2017-09-08T00:47:28.853Z,5.22
2017-09-08T00:49:59.925Z,5.60
2017-09-08T00:52:29.881Z,4.72
2017-09-08T00:54:59.129Z,4.55
2017-09-08T00:57:29.213Z,5.32
2017-09-08T00:59:59.823Z,5.10
2017-09-08T01:02:29.618Z,5.60
2017-09-08T01:04:58.198Z,5.10
2017-09-08T01:07:28.008Z,4.47
2017-09-08T01:09:58.467Z,5.00
2017-09-08T01:12:27.833Z,4.25
2017-09-08T01:14:57.652Z,4.57
2017-09-08T01:17:28.096Z,4.35
2017-09-08T01:19:58.377Z,4.60
2017-09-08T01:22:26.536Z,5.15
2017-09-08T01:24:57.300Z,4.90
2017-09-08T01:27:28.187Z,4.90
2017-09-08T01:29:57.540Z,5.37
2017-09-08T01:32:27.293Z,4.82
2017-09-08T01:34:56.493Z,4.50
2017-09-08T01:37:25.018Z,5.20
2017-09-08T01:39:53.556Z,5.20
2017-09-08T01:42:21.836Z,5.00
2017-09-08T01:44:52.462Z,5.00
2017-09-08T01:47:23.373Z,5.60
2017-09-08T01:49:52.169Z,4.70
2017-09-08T01:52:20.323Z,5.95
2017-09-08T01:54:48.514Z,5.05
2017-09-08T01:57:17.291Z,5.35
2017-09-08T01:59:47.308Z,5.62
2017-09-08T02:02:16.706Z,4.90
2017-09-08T02:04:45.733Z,4.55
2017-09-08T02:07:14.547Z,5.07
2017-09-08T02:09:42.879Z,4.70
2017-09-08T02:12:11.989Z,4.95
2017-09-08T02:14:41.294Z,5.93
2017-09-08T02:17:09.450Z,4.65
2017-09-08T02:19:39.041Z,5.28
2017-09-08T02:22:07.643Z,5.28
2017-09-08T02:24:35.778Z,5.55
2017-09-08T02:27:04.802Z,5.12
2017-09-08T02:29:33.608Z,6.72
2017-09-08T02:32:01.808Z,5.53
2017-09-08T02:34:29.982Z,5.22
2017-09-08T02:36:59.345Z,5.47
2017-09-08T02:39:29.102Z,4.90
2017-09-08T02:41:58.874Z,6.00
2017-09-08T02:44:27.805Z,6.15
2017-09-08T02:46:58.056Z,4.85
2017-09-08T02:49:27.341Z,6.05
2017-09-08T02:51:55.753Z,5.07
2017-09-08T02:54:26.063Z,5.97
2017-09-08T02:56:56.686Z,5.70
2017-09-08T02:59:24.844Z,5.35
2017-09-08T03:01:53.380Z,5.25
2017-09-08T03:04:21.856Z,5.53
2017-09-08T03:06:50.676Z,5.45
2017-09-08T03:09:19.619Z,4.82
2017-09-08T03:11:48.643Z,6.05
2017-09-08T03:14:17.144Z,5.60
2017-09-08T03:16:45.432Z,5.28
2017-09-08T03:19:15.032Z,5.32
2017-09-08T03:21:43.522Z,5.87
2017-09-08T03:24:11.715Z,4.75
2017-09-08T03:26:41.189Z,5.25
2017-09-08T03:29:10.223Z,5.37
2017-09-08T03:31:38.730Z,5.30
2017-09-08T03:34:07.278Z,5.53
2017-09-08T03:36:35.767Z,5.07
2017-09-08T03:39:04.492Z,5.00
2017-09-08T03:41:33.949Z,5.03
2017-09-08T03:44:03.109Z,5.30
2017-09-08T03:46:31.587Z,4.93
2017-09-08T03:49:00.535Z,4.53
2017-09-08T03:51:29.029Z,4.90
2017-09-08T03:53:57.333Z,5.20
2017-09-08T03:56:26.639Z,5.32
2017-09-08T03:58:55.150Z,4.80
2017-09-08T04:01:23.321Z,5.28
2017-09-08T04:03:51.494Z,5.53
2017-09-08T04:06:19.985Z,4.40
2017-09-08T04:08:48.249Z,4.68
2017-09-08T04:11:16.557Z,5.22
2017-09-08T04:13:45.476Z,6.18
2017-09-08T04:16:13.669Z,5.95
2017-09-08T04:18:42.120Z,4.68
2017-09-08T04:21:10.290Z,6.10
2017-09-08T04:23:38.759Z,5.15
2017-09-08T04:26:06.926Z,5.20
2017-09-08T04:28:35.084Z,4.85
2017-09-08T04:31:03.365Z,4.40
2017-09-08T04:33:31.535Z,4.12
2017-09-08T04:35:59.726Z,5.00
2017-09-08T04:38:27.909Z,4.95
2017-09-08T04:40:56.280Z,4.50
2017-09-08T04:43:24.467Z,4.32
2017-09-08T04:45:52.617Z,4.30
2017-09-08T04:48:20.898Z,4.25
2017-09-08T04:50:49.069Z,4.37
2017-09-08T04:53:17.231Z,4.65
2017-09-08T04:55:46.778Z,4.72
2017-09-08T04:58:15.260Z,4.80
2017-09-08T05:00:43.460Z,3.97
2017-09-08T05:03:11.615Z,4.18
2017-09-08T05:05:40.219Z,4.90
2017-09-08T05:08:08.378Z,4.10
2017-09-08T05:10:36.571Z,4.30
2017-09-08T05:13:04.717Z,4.22
2017-09-08T05:15:33.089Z,5.28
2017-09-08T05:18:01.251Z,4.70
2017-09-08T05:20:29.401Z,4.20
2017-09-08T05:22:57.688Z,4.35
2017-09-08T05:25:25.832Z,3.95
2017-09-08T05:27:54.011Z,3.92
2017-09-08T05:30:22.182Z,3.92
2017-09-08T05:32:50.334Z,3.90
2017-09-08T05:35:18.527Z,4.10
2017-09-08T05:37:46.672Z,4.07
2017-09-08T05:40:14.826Z,3.97
2017-09-08T05:42:43.433Z,4.20
2017-09-08T05:45:11.572Z,4.15
2017-09-08T05:47:39.769Z,4.30
2017-09-08T05:50:07.916Z,4.30
2017-09-08T05:52:36.095Z,5.15
2017-09-08T05:55:04.254Z,4.60
2017-09-08T05:57:32.408Z,4.80
2017-09-08T06:00:00.681Z,4.35
2017-09-08T06:02:28.855Z,5.12
2017-09-08T06:04:57.028Z,4.72
2017-09-08T06:07:25.408Z,3.87
2017-09-08T06:09:53.557Z,4.35
2017-09-08T06:12:23.134Z,4.95
2017-09-08T06:14:51.305Z,5.18
2017-09-08T06:17:19.581Z,4.35
2017-09-08T06:19:48.934Z,5.10
2017-09-08T06:22:18.432Z,5.18
2017-09-08T06:24:46.611Z,4.70
2017-09-08T06:27:14.733Z,5.37
2017-09-08T06:29:43.585Z,4.95
2017-09-08T06:32:11.940Z,6.05
2017-09-08T06:34:40.650Z,4.80
2017-09-08T06:37:10.417Z,4.85
2017-09-08T06:39:38.592Z,4.82
2017-09-08T06:42:08.896Z,4.82
2017-09-08T06:44:37.908Z,3.55
2017-09-08T06:47:07.035Z,4.37
2017-09-08T06:49:35.537Z,4.03
2017-09-08T06:52:04.202Z,4.60
2017-09-08T06:54:33.351Z,4.32
2017-09-08T06:57:01.973Z,4.55
2017-09-08T06:59:30.163Z,4.15
2017-09-08T07:02:00.829Z,3.92
2017-09-08T07:04:30.020Z,4.20
2017-09-08T07:06:59.798Z,4.47
2017-09-08T07:09:28.171Z,3.72
2017-09-08T07:11:56.391Z,3.75
2017-09-08T07:14:24.557Z,4.50
2017-09-08T07:16:53.672Z,3.85
2017-09-08T07:19:23.175Z,3.85
2017-09-08T07:21:53.193Z,4.95
2017-09-08T07:24:22.240Z,3.90
2017-09-08T07:26:50.718Z,4.55
2017-09-08T07:29:20.120Z,4.03
2017-09-08T07:31:48.959Z,4.47
2017-09-08T07:34:17.216Z,3.87
2017-09-08T07:36:45.674Z,3.35
2017-09-08T07:39:16.173Z,3.50
2017-09-08T07:41:45.370Z,3.72
2017-09-08T07:44:14.165Z,3.28
2017-09-08T07:46:42.382Z,4.00
2017-09-08T07:49:13.812Z,3.97
2017-09-08T07:51:41.979Z,4.10
2017-09-08T07:54:11.448Z,3.72
2017-09-08T07:56:40.669Z,3.12
2017-09-08T07:59:10.000Z,4.10
2017-09-08T08:01:38.186Z,4.12
2017-09-08T08:04:07.993Z,3.92
2017-09-08T08:06:36.209Z,4.07
2017-09-08T08:09:04.365Z,4.50
2017-09-08T08:11:32.553Z,3.60
2017-09-08T08:14:00.721Z,3.78
2017-09-08T08:16:28.997Z,4.40
2017-09-08T08:18:57.499Z,3.67
2017-09-08T08:21:27.234Z,3.92
2017-09-08T08:23:55.451Z,3.80
2017-09-08T08:26:23.594Z,4.05
2017-09-08T08:28:51.765Z,4.03
2017-09-08T08:31:19.920Z,3.90
2017-09-08T08:33:48.233Z,4.22
2017-09-08T08:36:16.366Z,3.70
2017-09-08T08:38:44.549Z,3.42
2017-09-08T08:41:12.820Z,3.62
2017-09-08T08:43:41.014Z,4.80
2017-09-08T08:46:09.161Z,3.90
2017-09-08T08:48:37.290Z,3.78
2017-09-08T08:51:05.489Z,4.05
2017-09-08T08:53:34.407Z,4.22
2017-09-08T08:56:03.393Z,4.00
2017-09-08T08:58:31.540Z,4.18
2017-09-08T09:00:59.723Z,3.75
2017-09-08T09:03:27.864Z,4.30
2017-09-08T09:05:56.016Z,4.43
2017-09-08T09:08:24.217Z,3.95
2017-09-08T09:10:52.354Z,3.50
2017-09-08T09:13:20.549Z,3.58
2017-09-08T09:15:48.688Z,4.32
2017-09-08T09:18:16.835Z,3.95
2017-09-08T09:20:45.822Z,4.40
2017-09-08T09:23:13.998Z,3.45
2017-09-08T09:25:42.129Z,4.10
2017-09-08T09:28:10.343Z,3.60
2017-09-08T09:30:38.488Z,4.47
2017-09-08T09:33:06.673Z,4.85
2017-09-08T09:35:34.822Z,4.25
2017-09-08T09:38:03.009Z,4.35
2017-09-08T09:40:31.499Z,4.25
2017-09-08T09:42:59.656Z,5.12
2017-09-08T09:45:27.930Z,4.82
2017-09-08T09:47:56.081Z,5.60
2017-09-08T09:50:24.246Z,4.22
2017-09-08T09:52:52.417Z,4.32
2017-09-08T09:55:20.575Z,4.70
2017-09-08T09:57:48.721Z,5.00
2017-09-08T10:00:16.907Z,4.20
2017-09-08T10:02:45.077Z,4.78
2017-09-08T10:05:13.308Z,4.43
2017-09-08T10:07:41.444Z,5.35
2017-09-08T10:10:09.584Z,4.50
2017-09-08T10:12:38.105Z,4.65
2017-09-08T10:15:06.252Z,5.03
2017-09-08T10:17:34.413Z,5.03
2017-09-08T10:20:02.557Z,4.72
2017-09-08T10:22:30.755Z,5.47
2017-09-08T10:24:58.894Z,5.25
2017-09-08T10:27:27.019Z,5.43
2017-09-08T10:29:55.214Z,4.87
2017-09-08T10:32:23.353Z,5.12
2017-09-08T10:34:51.533Z,5.60
2017-09-08T10:37:19.684Z,5.22
2017-09-08T10:39:47.822Z,6.03
2017-09-08T10:42:16.048Z,6.95
2017-09-08T10:44:44.184Z,6.53
2017-09-08T10:47:12.365Z,6.93
2017-09-08T10:49:40.499Z,6.97
2017-09-08T10:52:08.687Z,7.40
2017-09-08T10:54:36.824Z,6.62
2017-09-08T10:57:04.964Z,7.37
2017-09-08T10:59:33.225Z,7.82
2017-09-08T11:02:01.690Z,7.85
2017-09-08T11:04:31.915Z,7.15
2017-09-08T11:07:00.909Z,8.13
2017-09-08T11:09:29.074Z,6.90
2017-09-08T11:11:57.243Z,8.60
2017-09-08T11:14:25.462Z,7.35
2017-09-08T11:16:53.601Z,7.22
2017-09-08T11:19:22.050Z,7.80
2017-09-08T11:21:50.190Z,7.45
2017-09-08T11:24:18.563Z,7.47
2017-09-08T11:26:46.726Z,8.00
2017-09-08T11:29:14.908Z,8.50
2017-09-08T11:31:43.218Z,7.03
2017-09-08T11:34:11.352Z,7.40
2017-09-08T11:36:39.508Z,7.60
2017-09-08T11:39:07.812Z,7.50
2017-09-08T11:41:35.992Z,7.75
2017-09-08T11:44:04.169Z,6.82
2017-09-08T11:46:32.309Z,7.93
2017-09-08T11:49:00.486Z,6.50
2017-09-08T11:51:28.774Z,6.55
2017-09-08T11:53:56.937Z,7.22
2017-09-08T11:56:25.093Z,6.45
2017-09-08T11:58:53.263Z,6.80
2017-09-08T12:01:21.414Z,7.32
2017-09-08T12:03:49.597Z,7.80
2017-09-08T12:06:17.733Z,7.50
2017-09-08T12:08:46.043Z,6.57
2017-09-08T12:11:14.189Z,7.03
2017-09-08T12:13:42.361Z,6.87
2017-09-08T12:16:10.546Z,7.50
2017-09-08T12:18:38.681Z,6.35
2017-09-08T12:21:06.845Z,6.50
2017-09-08T12:23:35.066Z,6.70
2017-09-08T12:26:03.249Z,7.53
2017-09-08T12:28:31.436Z,6.62
2017-09-08T12:30:59.587Z,6.87
2017-09-08T12:33:27.777Z,6.03
2017-09-08T12:35:55.941Z,5.90
2017-09-08T12:38:24.097Z,6.15
2017-09-08T12:40:52.283Z,6.30
2017-09-08T12:43:20.427Z,5.90
2017-09-08T12:45:48.590Z,5.43
2017-09-08T12:48:16.902Z,6.03
2017-09-08T12:50:45.052Z,5.53
2017-09-08T12:53:13.524Z,5.80
2017-09-08T12:55:41.705Z,5.57
2017-09-08T12:58:09.858Z,5.12
2017-09-08T13:00:38.016Z,5.22
2017-09-08T13:03:13.404Z,5.20
2017-09-08T13:05:41.557Z,5.80
2017-09-08T13:08:09.737Z,5.43
2017-09-08T13:10:38.518Z,5.43
2017-09-08T13:13:06.662Z,5.95
2017-09-08T13:15:34.942Z,5.65
2017-09-08T13:18:03.868Z,6.10
2017-09-08T13:20:32.034Z,5.75
2017-09-08T13:23:00.203Z,6.18
2017-09-08T13:25:28.485Z,6.40
2017-09-08T13:27:56.654Z,6.18
2017-09-08T13:30:26.493Z,5.50
2017-09-08T13:32:54.679Z,5.55
2017-09-08T13:35:22.869Z,7.47
2017-09-08T13:37:51.066Z,5.35
2017-09-08T13:40:19.237Z,5.90
2017-09-08T13:42:47.433Z,5.60
2017-09-08T13:45:15.744Z,5.12
2017-09-08T13:47:43.915Z,5.75
2017-09-08T13:50:12.093Z,5.57
2017-09-08T13:52:40.259Z,5.70
2017-09-08T13:55:08.437Z,5.30
2017-09-08T13:57:38.801Z,4.95
2017-09-08T14:00:07.085Z,5.68
2017-09-08T14:02:36.364Z,5.93
2017-09-08T14:05:05.862Z,4.97
2017-09-08T14:07:34.813Z,5.68
2017-09-08T14:10:04.586Z,5.90
2017-09-08T14:12:33.804Z,5.03
2017-09-08T14:15:01.934Z,5.40
2017-09-08T14:17:30.432Z,5.50
2017-09-08T14:19:58.655Z,6.45
2017-09-08T14:22:26.868Z,4.82
2017-09-08T14:24:55.721Z,5.05
2017-09-08T14:27:25.278Z,4.75
2017-09-08T14:29:53.827Z,5.57
2017-09-08T14:32:22.895Z,5.20
2017-09-08T14:34:52.785Z,5.47
2017-09-08T14:37:22.348Z,5.55
2017-09-08T14:39:50.539Z,5.78
2017-09-08T14:42:18.699Z,5.65
2017-09-08T14:44:46.877Z,5.60
2017-09-08T14:47:15.069Z,4.78
2017-09-08T14:49:43.398Z,5.70
2017-09-08T14:52:14.316Z,5.82
2017-09-08T14:54:43.626Z,5.78
2017-09-08T14:57:12.415Z,5.30
2017-09-08T14:59:41.826Z,5.93
2017-09-08T15:02:10.335Z,5.10
2017-09-08T15:04:38.484Z,5.62
2017-09-08T15:07:06.641Z,6.47
2017-09-08T15:09:34.913Z,5.22
2017-09-08T15:12:04.502Z,5.50
2017-09-08T15:14:33.434Z,6.30
2017-09-08T15:17:01.616Z,5.80
2017-09-08T15:19:29.789Z,5.60
2017-09-08T15:21:57.940Z,5.05
2017-09-08T15:24:26.461Z,5.87
2017-09-08T15:26:54.740Z,4.87
2017-09-08T15:29:24.989Z,5.70
2017-09-08T15:31:53.159Z,5.93
2017-09-08T15:34:21.457Z,5.65
2017-09-08T15:36:50.018Z,5.20
2017-09-08T15:39:18.849Z,5.35
2017-09-08T15:41:46.987Z,5.18
2017-09-08T15:44:16.675Z,5.28
2017-09-08T15:46:45.157Z,4.25
2017-09-08T15:49:14.510Z,4.95
2017-09-08T15:51:42.738Z,5.15
2017-09-08T15:54:11.142Z,5.22
2017-09-08T15:56:40.686Z,4.37
2017-09-08T15:59:08.995Z,4.82
2017-09-08T16:01:37.503Z,4.95
2017-09-08T16:04:06.473Z,4.32
2017-09-08T16:06:36.102Z,4.93
2017-09-08T16:09:05.156Z,4.68
2017-09-08T16:11:33.961Z,4.70
2017-09-08T16:14:03.286Z,4.80
2017-09-08T16:16:31.450Z,5.07
2017-09-08T16:19:00.596Z,4.35
2017-09-08T16:21:47.211Z,5.40
2017-09-08T16:24:16.527Z,4.20
2017-09-08T16:26:44.723Z,4.12
2017-09-08T16:29:12.893Z,5.07
2017-09-08T16:31:41.408Z,4.05
2017-09-08T16:34:11.076Z,4.35
2017-09-08T16:36:39.240Z,5.12
2017-09-08T16:39:08.167Z,5.28
2017-09-08T16:41:36.716Z,3.80
2017-09-08T16:44:04.909Z,3.80
2017-09-08T16:46:33.979Z,3.90
2017-09-08T16:49:05.707Z,3.80
2017-09-08T16:51:34.025Z,4.30
2017-09-08T16:54:03.074Z,4.70
2017-09-08T16:56:32.618Z,4.35
2017-09-08T16:59:02.981Z,4.25
2017-09-08T17:01:32.286Z,4.50
2017-09-08T17:04:01.953Z,4.97
2017-09-08T17:06:31.266Z,3.80
2017-09-08T17:09:00.554Z,4.30
2017-09-08T17:11:29.058Z,4.55
2017-09-08T17:13:57.226Z,4.60
2017-09-08T17:16:25.408Z,4.82
2017-09-08T17:18:53.902Z,4.50
2017-09-08T17:21:22.077Z,4.30
2017-09-08T17:23:52.177Z,3.80
2017-09-08T17:26:20.514Z,3.70
2017-09-08T17:28:49.547Z,3.45
2017-09-08T17:31:18.297Z,4.30
2017-09-08T17:33:46.701Z,4.03
2017-09-08T17:36:16.662Z,3.75
2017-09-08T17:38:44.826Z,4.05
2017-09-08T17:41:13.370Z,3.90
2017-09-08T17:43:42.355Z,4.20
2017-09-08T17:46:10.581Z,4.90
2017-09-08T17:48:38.732Z,4.37
2017-09-08T17:51:08.306Z,4.00
2017-09-08T17:53:38.853Z,4.05
2017-09-08T17:56:07.760Z,4.15
2017-09-08T17:58:37.114Z,4.00
2017-09-08T18:01:06.293Z,4.68
2017-09-08T18:03:35.381Z,3.62
2017-09-08T18:06:06.215Z,3.72
2017-09-08T18:08:34.972Z,4.78
2017-09-08T18:11:04.209Z,5.03
2017-09-08T18:13:34.047Z,3.60
2017-09-08T18:16:02.459Z,4.70
2017-09-08T18:18:31.531Z,3.87
2017-09-08T18:21:00.747Z,4.15
2017-09-08T18:23:28.912Z,4.00
2017-09-08T18:25:57.115Z,4.50
2017-09-08T18:28:25.268Z,4.18
2017-09-08T18:30:53.687Z,3.78
2017-09-08T18:33:24.322Z,4.68
2017-09-08T18:35:53.399Z,4.60
2017-09-08T18:38:21.879Z,4.50
2017-09-08T18:40:50.202Z,4.55
2017-09-08T18:43:18.707Z,4.25
2017-09-08T18:45:48.262Z,4.47
2017-09-08T18:48:17.728Z,4.55
2017-09-08T18:50:47.047Z,4.22
2017-09-08T18:53:15.433Z,4.50
2017-09-08T18:55:43.744Z,3.97
2017-09-08T18:58:12.149Z,3.90
2017-09-08T19:00:40.866Z,5.00
2017-09-08T19:03:09.817Z,4.10
2017-09-08T19:05:38.005Z,4.57
2017-09-08T19:08:06.443Z,4.30
2017-09-08T19:10:34.612Z,3.92
2017-09-08T19:13:02.835Z,3.85
2017-09-08T19:15:31.012Z,4.10
2017-09-08T19:18:00.095Z,4.43
2017-09-08T19:20:28.298Z,4.00
2017-09-08T19:22:56.466Z,4.68
2017-09-08T19:25:24.612Z,3.92
2017-09-08T19:27:52.796Z,4.10
2017-09-08T19:30:20.969Z,4.37
2017-09-08T19:32:49.773Z,5.12
2017-09-08T19:35:18.116Z,4.10
2017-09-08T19:37:46.338Z,5.30
2017-09-08T19:40:14.505Z,4.93
2017-09-08T19:42:43.914Z,4.28
2017-09-08T19:45:12.114Z,4.05
2017-09-08T19:47:40.259Z,4.72
2017-09-08T19:50:08.657Z,4.07
2017-09-08T19:52:38.382Z,3.87
2017-09-08T19:55:06.530Z,5.45
2017-09-08T19:57:34.745Z,4.75
2017-09-08T20:00:02.889Z,4.22
2017-09-08T20:02:31.060Z,4.00
2017-09-08T20:04:59.242Z,3.58
2017-09-08T20:07:27.440Z,3.58
2017-09-08T20:09:55.637Z,4.47
2017-09-08T20:12:24.461Z,4.45
2017-09-08T20:14:53.497Z,4.35
2017-09-08T20:17:22.520Z,3.87
2017-09-08T20:19:50.693Z,4.12
2017-09-08T20:22:18.886Z,4.20
2017-09-08T20:24:47.035Z,3.83
2017-09-08T20:27:15.357Z,4.60
2017-09-08T20:29:43.475Z,4.53
2017-09-08T20:32:11.702Z,4.05
2017-09-08T20:34:40.687Z,3.85
2017-09-08T20:37:11.690Z,3.33
2017-09-08T20:39:39.823Z,4.20
2017-09-08T20:42:07.976Z,4.03
2017-09-08T20:44:36.255Z,4.05
2017-09-08T20:47:04.429Z,4.70
2017-09-08T20:49:32.655Z,3.60
2017-09-08T20:52:00.841Z,4.62
2017-09-08T20:54:30.337Z,4.35
2017-09-08T20:56:58.505Z,4.05
2017-09-08T20:59:26.641Z,3.17
2017-09-08T21:01:54.823Z,4.62
2017-09-08T21:04:23.003Z,4.05
2017-09-08T21:06:52.075Z,3.70
2017-09-08T21:09:20.722Z,4.18
2017-09-08T21:11:48.923Z,4.40
2017-09-08T21:14:17.096Z,3.78
2017-09-08T21:16:45.242Z,5.05
2017-09-08T21:19:13.442Z,4.55
2017-09-08T21:21:41.613Z,4.50
2017-09-08T21:24:09.935Z,4.45
2017-09-08T21:26:38.071Z,4.45
2017-09-08T21:29:07.002Z,3.95
2017-09-08T21:31:35.188Z,3.85
2017-09-08T21:34:05.403Z,4.20
2017-09-08T21:36:33.602Z,4.78
2017-09-08T21:39:01.757Z,4.00
2017-09-08T21:41:30.106Z,4.95
2017-09-08T21:43:58.248Z,3.53
2017-09-08T21:46:26.403Z,4.28
2017-09-08T21:48:54.582Z,3.78
2017-09-08T21:51:22.788Z,4.30
2017-09-08T21:53:50.926Z,5.20
2017-09-08T21:56:19.092Z,4.35
2017-09-08T21:58:47.747Z,4.10
2017-09-08T22:01:15.870Z,4.62
2017-09-08T22:03:44.864Z,4.12
2017-09-08T22:06:13.239Z,4.10
2017-09-08T22:08:41.385Z,4.80
2017-09-08T22:11:10.035Z,4.43
2017-09-08T22:13:38.187Z,4.20
2017-09-08T22:16:06.486Z,3.80
2017-09-08T22:18:34.634Z,4.20
2017-09-08T22:21:02.830Z,4.65
2017-09-08T22:23:30.977Z,4.12
2017-09-08T22:25:59.748Z,4.45
2017-09-08T22:28:27.944Z,4.40
2017-09-08T22:30:56.093Z,4.57
2017-09-08T22:33:24.242Z,4.37
2017-09-08T22:35:53.777Z,4.30
2017-09-08T22:38:21.930Z,3.83
2017-09-08T22:40:50.101Z,4.62
2017-09-08T22:43:18.282Z,5.03
2017-09-08T22:45:46.449Z,4.62
2017-09-08T22:48:14.780Z,4.25
2017-09-08T22:50:42.929Z,3.47
2017-09-08T22:53:11.084Z,4.70
2017-09-08T22:55:39.277Z,4.05
2017-09-08T22:58:07.417Z,4.40
2017-09-08T23:00:35.585Z,4.32
2017-09-08T23:03:03.735Z,4.00
2017-09-08T23:05:32.669Z,4.30
2017-09-08T23:08:00.810Z,4.40
2017-09-08T23:10:29.017Z,4.00
2017-09-08T23:12:57.163Z,4.57
2017-09-08T23:15:25.369Z,3.80
2017-09-08T23:17:53.511Z,4.10
2017-09-08T23:20:21.693Z,3.85
2017-09-08T23:22:49.884Z,4.25
2017-09-08T23:25:18.037Z,3.65
2017-09-08T23:27:46.184Z,3.87
2017-09-08T23:30:14.469Z,3.75
2017-09-08T23:32:42.669Z,3.72
2017-09-08T23:35:10.829Z,3.50
2017-09-08T23:37:39.030Z,3.67
2017-09-08T23:40:07.237Z,4.10
2017-09-08T23:42:35.510Z,4.30
2017-09-08T23:45:03.653Z,3.47
2017-09-08T23:47:31.808Z,3.33
2017-09-08T23:50:00.000Z,3.83
2017-09-08T23:52:28.144Z,4.30
2017-09-08T23:54:56.285Z,4.43
2017-09-08T23:57:24.452Z,4.20
2017-09-08T23:59:52.743Z,4.07
